Time;durP1;ratioP1;P1;durP2;ratioP2;P2;SDS_P1;SDS_P2;PMS_P1;PMS_P2;Temp;Humidity;BMP_temperature;BMP_pressure;BME280_temperature;BME280_humidity;BME280_pressure;Samples;Min_cycle;Max_cycle;Signal;HPM_P1;HPM_P2
2022/03/18 00:02:26;;;;;;;114.68;69.35;;;5.70;99.90;;;;;;4964966;28;20870;-62
2022/03/18 00:04:54;;;;;;;109.03;66.03;;;5.70;99.90;;;;;;4963257;28;20283;-62
2022/03/18 00:07:21;;;;;;;114.47;69.32;;;5.60;99.90;;;;;;4964848;28;20050;-62
2022/03/18 00:09:48;;;;;;;107.45;65.45;;;5.60;99.90;;;;;;4964896;28;20622;-62
2022/03/18 00:12:16;;;;;;;107.32;64.30;;;5.60;99.90;;;;;;4947628;28;20581;-62
2022/03/18 00:14:44;;;;;;;104.82;64.28;;;5.60;99.90;;;;;;4965435;28;20143;-61
2022/03/18 00:17:11;;;;;;;97.75;61.25;;;5.60;99.90;;;;;;4966615;28;20373;-62
2022/03/18 00:19:39;;;;;;;102.95;63.10;;;5.60;99.90;;;;;;4965932;28;20034;-62
2022/03/18 00:22:07;;;;;;;98.35;59.17;;;5.60;99.90;;;;;;4966221;28;20077;-62
2022/03/18 00:24:34;;;;;;;98.65;60.78;;;5.60;99.90;;;;;;4965213;28;20054;-62
2022/03/18 00:27:08;;;;;;;92.60;57.53;;;5.60;99.90;;;;;;4963457;28;20871;-62
2022/03/18 00:29:35;;;;;;;94.38;58.03;;;5.60;99.90;;;;;;4966605;28;20717;-62
2022/03/18 00:32:04;;;;;;;90.15;57.38;;;5.60;99.90;;;;;;4964227;28;20262;-62
2022/03/18 00:34:33;;;;;;;95.78;56.90;;;5.60;99.90;;;;;;4964091;28;20302;-62
2022/03/18 00:37:00;;;;;;;103.25;60.30;;;5.60;99.90;;;;;;4965653;28;20582;-62
2022/03/18 00:39:27;;;;;;;;;;;5.60;99.90;;;;;;4966860;28;20038;-62
2022/03/18 00:41:54;;;;;;;108.80;64.38;;;5.60;99.90;;;;;;4964347;28;19995;-61
2022/03/18 00:44:25;;;;;;;;;;;5.60;99.90;;;;;;4964093;28;20117;-62
2022/03/18 00:46:53;;;;;;;103.97;61.25;;;5.50;99.90;;;;;;4961394;28;19947;-62
2022/03/18 00:52:07;;;;;;;117.40;69.35;;;5.60;99.90;;;;;;4965165;28;20049;-62
2022/03/18 00:54:44;;;;;;;115.93;65.35;;;5.50;99.90;;;;;;4964564;28;20042;-62
2022/03/18 00:57:12;;;;;;;;;;;5.60;99.90;;;;;;4964954;28;20046;-62
2022/03/18 00:59:39;;;;;;;111.60;67.35;;;5.60;99.90;;;;;;4964408;28;19936;-62
2022/03/18 01:02:06;;;;;;;;;;;5.50;99.90;;;;;;4965218;28;20045;-62
2022/03/18 01:04:34;;;;;;;120.50;69.95;;;5.60;99.90;;;;;;4962795;28;19943;-62
2022/03/18 01:07:00;;;;;;;126.40;73.20;;;5.60;99.90;;;;;;4964555;28;20046;-63
2022/03/18 01:09:27;;;;;;;;;;;5.60;99.90;;;;;;4966437;28;20049;-63
2022/03/18 01:11:54;;;;;;;136.52;78.13;;;5.60;99.90;;;;;;4965928;28;19929;-63
2022/03/18 01:14:23;;;;;;;145.18;78.57;;;5.60;99.90;;;;;;4965004;28;20053;-63
2022/03/18 01:16:50;;;;;;;140.38;79.05;;;5.60;99.90;;;;;;4964014;28;20034;-63
2022/03/18 01:19:18;;;;;;;;;;;5.50;99.90;;;;;;4963736;28;20859;-63
2022/03/18 01:21:45;;;;;;;;;;;5.50;99.90;;;;;;4964558;28;19925;-63
2022/03/18 01:24:11;;;;;;;127.32;73.93;;;5.50;99.90;;;;;;4961111;28;19926;-63
2022/03/18 01:26:39;;;;;;;;;;;5.50;99.90;;;;;;4964778;28;20516;-63
2022/03/18 01:29:06;;;;;;;136.20;76.80;;;5.50;99.90;;;;;;4961759;28;19948;-63
2022/03/18 01:31:33;;;;;;;136.18;77.63;;;5.50;99.90;;;;;;4961707;28;20049;-63
2022/03/18 01:34:00;;;;;;;133.32;79.13;;;5.50;99.90;;;;;;4954652;28;20049;-63
2022/03/18 01:36:27;;;;;;;136.52;76.18;;;5.40;99.90;;;;;;4962923;28;20056;-63
2022/03/18 01:38:54;;;;;;;134.95;78.35;;;5.40;99.90;;;;;;4964863;28;20524;-63
2022/03/18 01:41:21;;;;;;;137.82;77.18;;;5.50;99.90;;;;;;4964379;28;20060;-63
2022/03/18 01:43:49;;;;;;;133.73;78.63;;;5.40;99.90;;;;;;4961046;28;20122;-63
2022/03/18 01:46:17;;;;;;;136.25;77.00;;;5.40;99.90;;;;;;4962851;28;20041;-63
2022/03/18 01:48:45;;;;;;;142.10;79.90;;;5.40;99.90;;;;;;4962744;28;20230;-63
2022/03/18 01:51:16;;;;;;;145.88;78.75;;;5.40;99.90;;;;;;4964779;28;20045;-63
2022/03/18 01:53:45;;;;;;;149.02;82.45;;;5.40;99.90;;;;;;4963195;28;20257;-63
2022/03/18 01:56:13;;;;;;;137.85;79.18;;;5.40;99.90;;;;;;4964473;28;20029;-63
2022/03/18 01:58:40;;;;;;;143.30;81.55;;;5.40;99.90;;;;;;4964501;28;20049;-63
2022/03/18 02:01:08;;;;;;;140.60;78.75;;;5.40;99.90;;;;;;4961268;28;20045;-63
2022/03/18 02:03:36;;;;;;;140.75;81.30;;;5.40;99.90;;;;;;4963543;28;20827;-63
2022/03/18 02:06:03;;;;;;;136.75;77.57;;;5.40;99.90;;;;;;4963459;28;20042;-63
2022/03/18 02:08:29;;;;;;;144.32;79.72;;;5.40;99.90;;;;;;4964645;28;20046;-63
2022/03/18 02:10:57;;;;;;;;;;;5.40;99.90;;;;;;4964123;28;20211;-63
2022/03/18 02:13:24;;;;;;;138.60;78.30;;;5.40;99.90;;;;;;4962816;28;20592;-64
2022/03/18 02:15:50;;;;;;;;;;;5.40;99.90;;;;;;4964173;28;20846;-63
2022/03/18 02:18:17;;;;;;;128.80;74.03;;;5.40;99.90;;;;;;4962974;28;19940;-63
2022/03/18 02:20:44;;;;;;;;;;;5.40;99.90;;;;;;4963681;28;20100;-63
2022/03/18 02:23:11;;;;;;;137.57;79.57;;;5.40;99.90;;;;;;4963831;28;19929;-63
2022/03/18 02:25:38;;;;;;;136.93;78.63;;;5.30;99.90;;;;;;4962542;28;20761;-63
2022/03/18 02:28:05;;;;;;;;;;;5.30;99.90;;;;;;4965719;28;20113;-63
2022/03/18 02:30:34;;;;;;;138.80;79.18;;;5.30;99.90;;;;;;4963694;28;19925;-64
2022/03/18 02:33:02;;;;;;;143.50;81.00;;;5.30;99.90;;;;;;4962890;28;20047;-64
2022/03/18 02:35:29;;;;;;;145.23;78.85;;;5.30;99.90;;;;;;4959951;28;20047;-64
2022/03/18 02:38:01;;;;;;;149.48;81.10;;;5.30;99.90;;;;;;4959523;28;20802;-64
2022/03/18 02:40:29;;;;;;;150.38;84.07;;;5.30;99.90;;;;;;4944344;28;20467;-64
2022/03/18 02:42:58;;;;;;;151.07;82.90;;;5.30;99.90;;;;;;4958140;28;20269;-64
2022/03/18 02:45:25;;;;;;;150.75;83.90;;;5.30;99.90;;;;;;4964874;28;20050;-64
2022/03/18 02:47:52;;;;;;;153.77;85.45;;;5.30;99.90;;;;;;4962536;28;20057;-63
2022/03/18 02:50:19;;;;;;;;;;;5.30;99.90;;;;;;4965819;28;20108;-64
2022/03/18 02:52:47;;;;;;;142.52;81.90;;;5.30;99.90;;;;;;4968117;28;19944;-64
2022/03/18 02:55:14;;;;;;;143.35;82.00;;;5.30;99.90;;;;;;4965821;28;20052;-64
2022/03/18 02:57:41;;;;;;;;;;;5.30;99.90;;;;;;4965319;28;20045;-64
2022/03/18 03:00:08;;;;;;;143.57;80.75;;;5.30;99.90;;;;;;4967137;28;20764;-64
2022/03/18 03:02:35;;;;;;;147.73;82.88;;;5.30;99.90;;;;;;4966759;28;20484;-64
2022/03/18 03:08:01;;;;;;;147.02;84.85;;;5.30;99.90;;;;;;4968002;28;20042;-64
2022/03/18 03:10:32;;;;;;;152.98;83.32;;;5.30;99.90;;;;;;4968020;28;20061;-64
2022/03/18 03:13:01;;;;;;;159.70;87.35;;;5.30;99.90;;;;;;4965397;28;20042;-64
2022/03/18 03:15:28;;;;;;;166.23;89.43;;;5.20;99.90;;;;;;4968505;28;20042;-64
2022/03/18 03:17:55;;;;;;;173.10;92.97;;;5.20;99.90;;;;;;4966320;28;20107;-64
2022/03/18 03:20:22;;;;;;;166.93;91.63;;;5.20;99.90;;;;;;4966517;28;20120;-64
2022/03/18 03:22:49;;;;;;;167.07;90.93;;;5.20;99.90;;;;;;4967630;28;20590;-64
2022/03/18 03:25:16;;;;;;;;;;;5.20;99.90;;;;;;4964589;28;20045;-63
2022/03/18 03:27:43;;;;;;;168.68;87.28;;;5.20;99.90;;;;;;4966941;28;19921;-64
2022/03/18 03:30:10;;;;;;;;;;;5.20;99.90;;;;;;4968579;28;20803;-64
2022/03/18 03:32:38;;;;;;;169.05;86.78;;;5.20;99.90;;;;;;4966508;28;19948;-64
2022/03/18 03:35:06;;;;;;;166.40;90.65;;;5.30;99.90;;;;;;4963806;28;20887;-63
2022/03/18 03:37:33;;;;;;;165.25;88.38;;;5.20;99.90;;;;;;4966793;28;20215;-64
2022/03/18 03:40:00;;;;;;;157.63;84.47;;;5.20;99.90;;;;;;4967144;28;20054;-64
2022/03/18 03:42:27;;;;;;;165.63;88.22;;;5.20;99.90;;;;;;4963761;28;20037;-64
2022/03/18 03:44:54;;;;;;;163.68;90.10;;;5.20;99.90;;;;;;4965268;28;20147;-64
2022/03/18 03:47:21;;;;;;;161.02;91.03;;;5.20;99.90;;;;;;4965572;28;20108;-64
2022/03/18 03:49:47;;;;;;;;;;;5.20;99.90;;;;;;4965017;28;20143;-64
2022/03/18 03:52:14;;;;;;;165.13;89.65;;;5.20;99.90;;;;;;4964838;28;20281;-64
2022/03/18 03:54:42;;;;;;;167.05;88.32;;;5.20;99.90;;;;;;4965907;28;20053;-63
2022/03/18 03:57:09;;;;;;;177.02;92.25;;;5.20;99.90;;;;;;4963876;28;20072;-63
2022/03/18 03:59:36;;;;;;;173.73;93.80;;;5.30;99.90;;;;;;4965014;28;20049;-64
2022/03/18 04:02:03;;;;;;;178.40;95.40;;;5.30;99.90;;;;;;4964277;28;20421;-64
2022/03/18 04:04:32;;;;;;;183.95;97.32;;;5.20;99.90;;;;;;4966300;28;20046;-64
2022/03/18 04:06:59;;;;;;;180.13;96.53;;;5.20;99.90;;;;;;4965382;28;20962;-64
2022/03/18 04:09:26;;;;;;;184.63;99.20;;;5.20;99.90;;;;;;4966657;28;20050;-64
2022/03/18 04:11:54;;;;;;;187.20;99.22;;;5.20;99.90;;;;;;4966980;28;20060;-64
2022/03/18 04:14:21;;;;;;;179.88;96.93;;;5.20;99.90;;;;;;4965942;28;20119;-64
2022/03/18 04:16:47;;;;;;;;;;;5.20;99.90;;;;;;4966952;28;20068;-63
2022/03/18 04:19:14;;;;;;;183.93;95.20;;;5.20;99.90;;;;;;4965991;28;20431;-63
2022/03/18 04:21:42;;;;;;;178.93;95.65;;;5.20;99.90;;;;;;4966215;28;20046;-64
2022/03/18 04:24:09;;;;;;;192.27;101.50;;;5.20;99.90;;;;;;4964523;28;20758;-64
2022/03/18 04:26:41;;;;;;;181.25;99.63;;;5.20;99.90;;;;;;4964601;28;20065;-64
2022/03/18 04:29:08;;;;;;;197.05;105.05;;;5.20;99.90;;;;;;4966493;28;20046;-64
2022/03/18 04:31:35;;;;;;;183.40;99.03;;;5.20;99.90;;;;;;4964877;28;20045;-63
2022/03/18 04:34:03;;;;;;;184.40;100.80;;;5.20;99.90;;;;;;4962311;28;20149;-63
2022/03/18 04:36:30;;;;;;;188.65;101.32;;;5.20;99.90;;;;;;4965614;28;20038;-63
2022/03/18 04:38:58;;;;;;;185.02;100.95;;;5.20;99.90;;;;;;4966551;28;20539;-64
2022/03/18 04:41:25;;;;;;;185.93;100.35;;;5.20;99.90;;;;;;4966238;28;20180;-63
2022/03/18 04:43:52;;;;;;;193.18;100.25;;;5.10;99.90;;;;;;4963842;28;20073;-63
2022/03/18 04:46:19;;;;;;;189.90;100.45;;;5.20;99.90;;;;;;4965791;28;20042;-63
2022/03/18 04:48:46;;;;;;;197.80;104.82;;;5.20;99.90;;;;;;4962413;28;20040;-64
2022/03/18 04:51:13;;;;;;;;;;;5.20;99.90;;;;;;4966879;28;20046;-64
2022/03/18 04:53:42;;;;;;;194.00;104.28;;;5.20;99.90;;;;;;4961744;28;19922;-64
2022/03/18 04:57:15;;;;;;;183.45;100.75;;;5.20;99.90;;;;;;4965609;28;20038;-64
2022/03/18 04:58:57;;;;;;;198.37;102.57;;;5.20;99.90;;;;;;4964727;28;20295;-64
2022/03/18 05:01:24;;;;;;;193.13;102.07;;;5.20;99.90;;;;;;4962041;28;20459;-63
2022/03/18 05:03:51;;;;;;;197.20;101.50;;;5.20;99.90;;;;;;4964812;28;20422;-64
2022/03/18 05:06:18;;;;;;;184.15;98.50;;;5.20;99.90;;;;;;4965331;28;20049;-64
2022/03/18 05:08:45;;;;;;;192.13;103.13;;;5.20;99.90;;;;;;4965356;28;20049;-64
2022/03/18 05:11:15;;;;;;;;;;;5.20;99.90;;;;;;4962890;28;20042;-64
2022/03/18 05:13:42;;;;;;;184.25;98.80;;;5.10;99.90;;;;;;4965321;28;19921;-64
2022/03/18 05:16:09;;;;;;;195.60;107.70;;;5.20;99.90;;;;;;4964838;28;20050;-64
2022/03/18 05:18:36;;;;;;;195.38;102.43;;;5.20;99.90;;;;;;4964428;28;20184;-64
2022/03/18 05:21:03;;;;;;;;;;;5.10;99.90;;;;;;4965633;28;20053;-64
2022/03/18 05:23:30;;;;;;;187.75;101.43;;;5.10;99.90;;;;;;4963568;28;20167;-64
2022/03/18 05:25:58;;;;;;;195.07;106.20;;;5.10;99.90;;;;;;4964648;28;20313;-64
2022/03/18 05:28:26;;;;;;;191.52;101.47;;;5.10;99.90;;;;;;4966250;28;20649;-64
2022/03/18 05:30:53;;;;;;;199.00;104.15;;;5.10;99.90;;;;;;4948008;28;20042;-64
2022/03/18 05:33:20;;;;;;;;;;;5.10;99.90;;;;;;4963553;28;20357;-64
2022/03/18 05:35:47;;;;;;;192.57;99.88;;;5.00;99.90;;;;;;4964843;28;19929;-64
2022/03/18 05:38:14;;;;;;;199.63;105.13;;;5.10;99.90;;;;;;4964767;28;20902;-64
2022/03/18 05:40:41;;;;;;;187.27;102.03;;;5.10;99.90;;;;;;4962489;28;20061;-64
2022/03/18 05:43:09;;;;;;;188.52;100.13;;;5.10;99.90;;;;;;4961423;28;20723;-64
2022/03/18 05:45:36;;;;;;;172.57;96.82;;;5.10;99.90;;;;;;4964976;28;20045;-64
2022/03/18 05:48:04;;;;;;;;;;;5.10;99.90;;;;;;4945267;28;20057;-64
2022/03/18 05:50:33;;;;;;;175.05;95.82;;;5.10;99.90;;;;;;4963228;28;20688;-64
2022/03/18 05:53:00;;;;;;;197.00;100.35;;;5.10;99.90;;;;;;4962822;28;20547;-64
2022/03/18 05:56:52;;;;;;;191.60;100.68;;;5.10;99.90;;;;;;4963275;28;20037;-64
2022/03/18 05:58:15;;;;;;;181.05;99.43;;;5.10;99.90;;;;;;4946154;28;20618;-64
2022/03/18 06:00:44;;;;;;;189.00;103.35;;;5.10;99.90;;;;;;4944965;28;20579;-64
2022/03/18 06:03:14;;;;;;;186.30;101.68;;;5.10;99.90;;;;;;4959920;28;20113;-64
2022/03/18 06:05:42;;;;;;;201.10;102.60;;;5.10;99.90;;;;;;4944972;28;20975;-64
2022/03/18 06:13:40;;;;;;;185.80;101.65;;;5.10;99.90;;;;;;4963867;28;20030;-63
2022/03/18 06:16:07;;;;;;;;;;;5.10;99.90;;;;;;4962463;28;20042;-63
2022/03/18 06:18:38;;;;;;;182.82;99.43;;;5.10;99.90;;;;;;4963896;28;20462;-64
2022/03/18 06:21:06;;;;;;;190.40;102.43;;;5.00;99.90;;;;;;4963071;28;20136;-64
2022/03/18 06:23:34;;;;;;;182.82;100.93;;;5.10;99.90;;;;;;4965149;28;20049;-63
2022/03/18 06:26:02;;;;;;;177.15;98.18;;;5.00;99.90;;;;;;4966521;28;20046;-64
2022/03/18 06:28:31;;;;;;;191.70;100.65;;;5.10;99.90;;;;;;4968123;28;20056;-64
2022/03/18 06:30:58;;;;;;;183.90;101.07;;;5.10;99.90;;;;;;4968613;28;20049;-64
2022/03/18 06:33:27;;;;;;;193.25;105.47;;;5.10;99.90;;;;;;4966498;28;20053;-64
2022/03/18 06:35:54;;;;;;;187.52;104.30;;;5.10;99.90;;;;;;4965711;28;20880;-63
2022/03/18 06:38:21;;;;;;;184.15;100.00;;;5.10;99.90;;;;;;4967135;28;20751;-64
2022/03/18 06:40:48;;;;;;;;;;;5.10;99.90;;;;;;4967609;28;20551;-64
2022/03/18 06:43:15;;;;;;;187.27;98.30;;;5.10;99.90;;;;;;4948876;28;20245;-64
2022/03/18 06:45:42;;;;;;;181.90;99.43;;;5.10;99.90;;;;;;4965178;28;20050;-64
2022/03/18 06:48:10;;;;;;;180.98;99.85;;;5.10;99.90;;;;;;4968048;28;20049;-64
2022/03/18 06:50:37;;;;;;;182.43;102.70;;;5.10;99.90;;;;;;4966075;28;20046;-64
2022/03/18 06:53:04;;;;;;;;;;;5.10;99.90;;;;;;4966241;28;20089;-64
2022/03/18 06:55:31;;;;;;;197.98;100.95;;;5.10;99.90;;;;;;4968601;28;20439;-64
2022/03/18 06:57:58;;;;;;;191.98;100.40;;;5.10;99.90;;;;;;4967166;28;20042;-52
2022/03/18 07:00:25;;;;;;;197.40;105.30;;;5.10;99.90;;;;;;4949301;28;20050;-48
2022/03/18 07:02:51;;;;;;;;;;;5.10;99.90;;;;;;4965981;28;20135;-56
2022/03/18 07:05:19;;;;;;;195.90;101.57;;;5.10;99.90;;;;;;4963929;28;20777;-55
2022/03/18 07:07:45;;;;;;;181.75;99.97;;;5.20;99.90;;;;;;4964380;28;20042;-54
2022/03/18 07:10:12;;;;;;;;;;;5.20;99.90;;;;;;4968755;28;20110;-55
2022/03/18 07:12:39;;;;;;;178.60;97.57;;;5.20;99.90;;;;;;4967551;28;20646;-55
2022/03/18 07:15:07;;;;;;;190.07;103.78;;;5.30;99.90;;;;;;4966577;28;20140;-55
2022/03/18 07:20:22;;;;;;;179.38;98.40;;;5.30;99.90;;;;;;4967560;28;20042;-56
2022/03/18 07:23:09;;;;;;;193.75;102.07;;;5.30;99.90;;;;;;4966934;28;20053;-55
2022/03/18 07:25:44;;;;;;;193.13;101.23;;;5.30;99.90;;;;;;4964578;28;20117;-56
2022/03/18 07:28:17;;;;;;;189.73;102.93;;;5.30;99.90;;;;;;4964694;28;20370;-58
2022/03/18 07:30:44;;;;;;;198.02;103.55;;;5.20;99.90;;;;;;4965874;28;20049;-56
2022/03/18 07:33:12;;;;;;;197.43;103.45;;;5.20;99.90;;;;;;4965039;28;20967;-56
2022/03/18 07:35:38;;;;;;;186.77;104.60;;;5.30;99.90;;;;;;4964855;28;20867;-56
2022/03/18 07:38:09;;;;;;;193.32;102.20;;;5.30;99.90;;;;;;4966101;28;20128;-56
2022/03/18 07:40:37;;;;;;;183.20;99.10;;;5.20;99.90;;;;;;4964456;28;20046;-56
2022/03/18 07:43:05;;;;;;;199.85;101.38;;;5.30;99.90;;;;;;4965350;28;20038;-56
2022/03/18 07:45:34;;;;;;;174.88;99.88;;;5.30;99.90;;;;;;4965565;28;20069;-58
2022/03/18 07:48:05;;;;;;;181.35;100.78;;;5.30;99.90;;;;;;4966664;28;20330;-55
2022/03/18 07:50:35;;;;;;;185.55;99.20;;;5.30;99.90;;;;;;4962649;28;20068;-55
2022/03/18 07:53:07;;;;;;;164.07;93.43;;;5.30;99.90;;;;;;4964924;28;20049;-55
2022/03/18 07:55:36;;;;;;;170.35;94.55;;;5.30;99.90;;;;;;4965349;28;20565;-56
2022/03/18 07:58:03;;;;;;;173.57;95.00;;;5.30;99.90;;;;;;4965934;28;20053;-56
2022/03/18 08:00:30;;;;;;;168.60;94.28;;;5.30;99.90;;;;;;4965273;28;20319;-56
2022/03/18 08:02:57;;;;;;;175.27;99.88;;;5.30;99.90;;;;;;4963986;28;20037;-57
2022/03/18 08:05:24;;;;;;;177.95;100.63;;;5.30;99.90;;;;;;4964688;28;20563;-55
2022/03/18 08:07:56;;;;;;;166.52;96.40;;;5.30;99.90;;;;;;4963238;28;20049;-56
2022/03/18 08:10:23;;;;;;;164.98;95.28;;;5.30;99.90;;;;;;4963558;28;20262;-56
2022/03/18 08:12:50;;;;;;;167.40;95.55;;;5.30;99.90;;;;;;4965285;28;20041;-56
2022/03/18 08:15:20;;;;;;;174.98;100.00;;;5.40;99.90;;;;;;4963870;28;20065;-55
2022/03/18 08:17:52;;;;;;;183.15;100.22;;;5.40;99.90;;;;;;4946676;28;20908;-56
2022/03/18 08:20:20;;;;;;;171.20;98.43;;;5.30;99.90;;;;;;4963295;28;20272;-55
2022/03/18 08:22:48;;;;;;;165.80;94.75;;;5.40;99.90;;;;;;4964185;28;20191;-56
2022/03/18 08:25:16;;;;;;;175.45;97.25;;;5.40;99.90;;;;;;4962498;28;20133;-56
2022/03/18 08:27:43;;;;;;;173.90;98.05;;;5.40;99.90;;;;;;4967316;28;20046;-56
2022/03/18 08:30:11;;;;;;;;;;;5.40;99.90;;;;;;4965826;28;20077;-52
2022/03/18 08:32:39;;;;;;;165.50;94.88;;;5.30;99.90;;;;;;4965097;28;19983;-55
2022/03/18 08:35:07;;;;;;;166.90;95.88;;;5.40;99.90;;;;;;4964038;28;20101;-57
2022/03/18 08:40:21;;;;;;;175.70;97.18;;;5.40;99.90;;;;;;4962953;28;20323;-65
2022/03/18 08:42:48;;;;;;;172.85;98.65;;;5.40;99.90;;;;;;4946636;28;20672;-56
2022/03/18 08:45:16;;;;;;;169.40;96.47;;;5.40;99.90;;;;;;4961519;28;20038;-57
2022/03/18 08:47:43;;;;;;;167.38;93.53;;;5.50;99.90;;;;;;4966426;28;20560;-57
2022/03/18 08:50:11;;;;;;;163.98;94.05;;;5.50;99.90;;;;;;4958387;28;20045;-56
2022/03/18 08:52:40;;;;;;;167.45;93.15;;;5.50;99.90;;;;;;4964116;28;20764;-62
2022/03/18 08:55:07;;;;;;;160.30;92.38;;;5.50;99.90;;;;;;4962549;28;20069;-69
2022/03/18 08:57:37;;;;;;;154.32;89.15;;;5.50;99.90;;;;;;4964546;28;20835;-60
2022/03/18 09:00:07;;;;;;;154.32;87.90;;;5.50;99.90;;;;;;4961688;28;20033;-58
2022/03/18 09:02:38;;;;;;;156.15;89.65;;;5.50;99.90;;;;;;4963407;28;20049;-55
2022/03/18 09:05:07;;;;;;;145.13;87.60;;;5.60;99.90;;;;;;4963775;28;20108;-55
2022/03/18 09:07:36;;;;;;;152.55;89.60;;;5.60;99.90;;;;;;4963561;28;20226;-56
2022/03/18 09:10:04;;;;;;;149.65;87.70;;;5.60;99.90;;;;;;4965452;28;20056;-62
2022/03/18 09:12:31;;;;;;;157.02;88.70;;;5.60;99.90;;;;;;4962456;28;20054;-54
2022/03/18 09:14:59;;;;;;;148.50;91.25;;;5.60;99.90;;;;;;4961657;28;20330;-54
2022/03/18 09:17:25;;;;;;;146.95;87.68;;;5.60;99.90;;;;;;4962324;28;20570;-54
2022/03/18 09:19:52;;;;;;;;;;;5.70;99.90;;;;;;4964449;28;20116;-55
2022/03/18 09:22:19;;;;;;;143.80;86.43;;;5.70;99.90;;;;;;4963806;28;20340;-54
2022/03/18 09:24:46;;;;;;;141.52;85.40;;;5.70;99.90;;;;;;4962140;28;20045;-53
2022/03/18 09:27:17;;;;;;;134.23;85.70;;;5.80;99.90;;;;;;4964600;28;20211;-54
2022/03/18 09:29:44;;;;;;;146.25;86.47;;;5.80;99.90;;;;;;4962354;28;20050;-54
2022/03/18 09:32:11;;;;;;;143.38;86.78;;;5.80;99.90;;;;;;4963231;28;20604;-53
2022/03/18 09:34:37;;;;;;;148.70;84.88;;;5.80;99.90;;;;;;4960875;28;20211;-54
2022/03/18 09:37:04;;;;;;;;;;;5.80;99.90;;;;;;4963578;28;20049;-53
2022/03/18 09:39:32;;;;;;;141.43;84.13;;;5.80;99.90;;;;;;4961830;28;20017;-53
2022/03/18 09:42:03;;;;;;;134.60;82.47;;;5.80;99.90;;;;;;4961264;28;20943;-54
2022/03/18 09:44:39;;;;;;;134.75;82.88;;;5.90;99.90;;;;;;4944099;28;20389;-54
2022/03/18 09:47:08;;;;;;;132.43;81.40;;;5.80;99.90;;;;;;4964436;28;20131;-53
2022/03/18 09:49:36;;;;;;;138.35;83.22;;;5.80;99.90;;;;;;4964110;28;20231;-55
2022/03/18 09:52:04;;;;;;;133.63;80.43;;;5.90;99.90;;;;;;4964215;28;20539;-49
2022/03/18 09:54:32;;;;;;;133.00;81.40;;;5.90;99.90;;;;;;4963130;28;20645;-49
2022/03/18 09:57:01;;;;;;;128.52;80.25;;;6.00;99.90;;;;;;4963182;28;20561;-51
2022/03/18 09:59:28;;;;;;;133.10;83.28;;;6.10;99.90;;;;;;4965164;28;20500;-54
2022/03/18 10:02:21;;;;;;;123.03;78.82;;;6.20;99.90;;;;;;4964494;28;20053;-54
2022/03/18 10:04:53;;;;;;;130.63;80.72;;;6.20;99.90;;;;;;4962300;28;20058;-54
2022/03/18 10:07:21;;;;;;;129.13;80.82;;;6.10;99.90;;;;;;4963587;28;20042;-55
2022/03/18 10:10:15;;;;;;;133.70;80.65;;;6.10;99.90;;;;;;4963995;28;20050;-54
2022/03/18 10:12:47;;;;;;;129.15;80.85;;;6.10;99.90;;;;;;4964123;28;20442;-55
2022/03/18 10:15:18;;;;;;;136.90;79.90;;;6.10;99.90;;;;;;4962948;28;20038;-54
2022/03/18 10:17:48;;;;;;;134.25;84.22;;;6.10;99.90;;;;;;4960882;28;20974;-54
2022/03/18 10:20:38;;;;;;;135.00;81.68;;;6.10;99.90;;;;;;4964537;28;20042;-55
2022/03/18 10:23:19;;;;;;;132.88;82.03;;;6.10;99.90;;;;;;4960070;28;20038;-52
2022/03/18 10:25:54;;;;;;;135.18;83.03;;;6.10;99.90;;;;;;4964109;28;20520;-52
2022/03/18 10:28:40;;;;;;;136.55;85.78;;;6.10;99.90;;;;;;4963242;28;20046;-52
2022/03/18 10:31:15;;;;;;;132.20;81.13;;;6.20;99.90;;;;;;4961655;28;20377;-53
2022/03/18 10:37:08;;;;;;;136.88;84.88;;;6.20;99.90;;;;;;4963821;28;20061;-55
2022/03/18 10:39:40;;;;;;;138.48;84.47;;;6.20;99.90;;;;;;4962873;28;20049;-53
2022/03/18 10:42:15;;;;;;;148.57;86.80;;;6.20;99.90;;;;;;4964750;28;20128;-55
2022/03/18 10:44:48;;;;;;;139.43;83.68;;;6.20;99.90;;;;;;4963741;28;20511;-53
2022/03/18 10:47:38;;;;;;;135.85;84.60;;;6.30;99.90;;;;;;4962168;28;20682;-55
2022/03/18 10:50:11;;;;;;;134.43;85.88;;;6.30;99.90;;;;;;4960699;28;20168;-53
2022/03/18 10:52:47;;;;;;;139.00;82.80;;;6.30;99.90;;;;;;4961094;28;20045;-53
2022/03/18 10:55:26;;;;;;;132.77;81.30;;;6.40;99.90;;;;;;4960917;28;20479;-53
2022/03/18 10:57:56;;;;;;;135.48;81.60;;;6.50;99.90;;;;;;4964451;28;20045;-55
2022/03/18 11:00:25;;;;;;;136.45;85.32;;;6.50;99.90;;;;;;4963310;28;20152;-55
2022/03/18 11:02:53;;;;;;;128.82;81.28;;;6.50;99.90;;;;;;4961235;28;20066;-54
2022/03/18 11:05:21;;;;;;;141.30;84.72;;;6.60;99.90;;;;;;4963750;28;20058;-55
2022/03/18 11:07:52;;;;;;;132.95;81.80;;;6.60;99.90;;;;;;4962544;28;20928;-54
2022/03/18 11:13:08;;;;;;;132.85;79.22;;;6.70;99.90;;;;;;4967271;28;20050;-53
2022/03/18 11:15:38;;;;;;;119.78;76.80;;;6.70;99.90;;;;;;4967011;28;20508;-54
2022/03/18 11:18:08;;;;;;;129.07;78.43;;;6.70;99.90;;;;;;4968371;28;20053;-55
2022/03/18 11:20:42;;;;;;;119.97;75.10;;;6.80;99.90;;;;;;4966886;28;20087;-54
2022/03/18 11:23:20;;;;;;;124.68;80.15;;;6.80;99.90;;;;;;4966622;28;20041;-55
2022/03/18 11:25:51;;;;;;;128.15;78.75;;;6.80;99.90;;;;;;4966661;28;20048;-54
2022/03/18 11:28:19;;;;;;;120.45;78.57;;;6.90;99.90;;;;;;4965773;28;20560;-54
2022/03/18 11:30:48;;;;;;;120.53;77.43;;;6.90;99.90;;;;;;4967308;28;20046;-55
2022/03/18 11:33:14;;;;;;;116.95;74.32;;;6.90;99.90;;;;;;4966926;28;20054;-54
2022/03/18 11:35:50;;;;;;;;;;;6.90;99.90;;;;;;4967814;28;20048;-54
2022/03/18 11:38:19;;;;;;;117.47;73.20;;;7.00;99.90;;;;;;4966723;28;20848;-54
2022/03/18 11:40:53;;;;;;;125.03;79.93;;;7.00;99.90;;;;;;4965938;28;20907;-55
2022/03/18 11:43:34;;;;;;;122.03;78.43;;;7.10;99.90;;;;;;4964288;28;20045;-55
2022/03/18 11:46:13;;;;;;;118.78;74.15;;;7.10;99.90;;;;;;4967243;28;20082;-59
2022/03/18 11:48:51;;;;;;;120.32;78.40;;;7.20;99.90;;;;;;4964800;28;20041;-55
2022/03/18 11:51:30;;;;;;;119.93;76.63;;;7.20;99.90;;;;;;4963999;28;20050;-60
2022/03/18 11:54:05;;;;;;;122.57;75.82;;;7.30;99.90;;;;;;4964790;28;20037;-60
2022/03/18 11:56:52;;;;;;;117.93;76.75;;;7.30;99.90;;;;;;4964118;28;20144;-58
2022/03/18 11:59:28;;;;;;;119.57;74.75;;;7.40;99.90;;;;;;4961410;28;20042;-56
2022/03/18 12:02:05;;;;;;;110.68;72.43;;;7.50;99.90;;;;;;4944935;28;20589;-56
2022/03/18 12:04:50;;;;;;;110.95;71.07;;;7.60;99.90;;;;;;4961072;28;20050;-56
2022/03/18 12:07:24;;;;;;;109.47;70.85;;;7.70;99.90;;;;;;4964776;28;20132;-54
2022/03/18 12:09:54;;;;;;;110.20;73.60;;;7.80;99.90;;;;;;4965262;28;20564;-56
2022/03/18 12:12:40;;;;;;;110.78;71.93;;;7.80;99.90;;;;;;4963807;28;20034;-56
2022/03/18 12:15:16;;;;;;;111.80;71.75;;;7.90;99.90;;;;;;4964824;28;20034;-57
2022/03/18 12:17:50;;;;;;;116.05;74.45;;;8.00;99.90;;;;;;4963455;28;20711;-57
2022/03/18 12:20:23;;;;;;;114.00;75.03;;;8.00;99.90;;;;;;4964169;28;20080;-57
2022/03/18 12:22:52;;;;;;;115.57;72.80;;;8.10;99.90;;;;;;4965355;28;20041;-56
2022/03/18 12:25:22;;;;;;;110.40;72.72;;;8.20;99.90;;;;;;4963742;28;20045;-56
2022/03/18 12:27:50;;;;;;;108.50;72.63;;;8.20;99.90;;;;;;4965857;28;20103;-56
2022/03/18 12:30:25;;;;;;;108.10;72.10;;;8.30;99.90;;;;;;4964831;28;20056;-57
2022/03/18 12:32:52;;;;;;;106.95;68.68;;;8.40;99.90;;;;;;4964905;28;21012;-57
2022/03/18 12:35:23;;;;;;;;;;;8.50;99.90;;;;;;4948471;28;20144;-57
2022/03/18 12:40:53;;;;;;;106.30;69.40;;;8.70;99.90;;;;;;5054939;23;20213;-56
2022/03/18 12:43:20;;;;;;;107.85;69.72;;;8.80;99.90;;;;;;4952841;28;20047;-57
2022/03/18 12:45:46;;;;;;;;;;;8.90;99.90;;;;;;4962367;28;20058;-56
2022/03/18 12:48:21;;;;;;;98.32;63.50;;;9.10;99.90;;;;;;4951851;28;19930;-54
2022/03/18 12:50:49;;;;;;;98.18;63.83;;;9.10;99.90;;;;;;4942492;29;20039;-57
2022/03/18 12:53:21;;;;;;;93.35;60.10;;;9.20;99.90;;;;;;4943822;29;20102;-57
2022/03/18 12:55:50;;;;;;;96.07;63.85;;;9.30;99.90;;;;;;4942449;29;20063;-56
2022/03/18 12:58:38;;;;;;;102.13;62.15;;;9.40;99.90;;;;;;4942813;28;20055;-57
2022/03/18 13:01:24;;;;;;;95.38;61.75;;;9.40;99.90;;;;;;4942732;28;20471;-57
2022/03/18 13:03:52;;;;;;;89.78;58.90;;;9.50;99.90;;;;;;4942772;29;20074;-57
2022/03/18 13:06:20;;;;;;;92.75;61.42;;;9.60;99.90;;;;;;4943424;29;20454;-56
2022/03/18 13:08:54;;;;;;;93.47;59.92;;;9.70;99.90;;;;;;4924469;28;20501;-56
2022/03/18 13:11:30;;;;;;;90.28;59.22;;;9.80;99.90;;;;;;4943634;29;20043;-56
2022/03/18 13:13:57;;;;;;;88.72;56.60;;;9.90;99.90;;;;;;4923921;29;20067;-56
2022/03/18 13:16:44;;;;;;;86.18;57.53;;;9.90;99.90;;;;;;4925301;29;20082;-57